Time;durP1;ratioP1;P1;durP2;ratioP2;P2;SDS_P1;SDS_P2;PMS_P1;PMS_P2;Temp;Humidity;BMP_temperature;BMP_pressure;BME280_temperature;BME280_humidity;BME280_pressure;Samples;Min_cycle;Max_cycle;Signal;HPM_P1;HPM_P2
2023/07/08 00:00:54;;;;;;;;;;;;;;;14.03;64.02;101982.41;108040;1260;125201;-79
2023/07/08 00:03:41;;;;;;;;;;;;;;;13.97;64.12;101977.48;108230;1257;61261;-79
2023/07/08 00:06:26;;;;;;;;;;;;;;;13.94;64.09;101977.55;108099;1254;124657;-79
2023/07/08 00:08:54;;;;;;;;;;;;;;;13.91;64.18;101983.11;108117;1259;73088;-79
2023/07/08 00:11:21;;;;;;;;;;;;;;;13.87;64.38;101983.89;107825;1262;124277;-80
2023/07/08 00:13:48;;;;;;;;;;;;;;;13.85;64.40;101984.14;107905;1254;73152;-79
2023/07/08 00:16:16;;;;;;;;;;;;;;;13.82;64.49;101983.00;108029;1256;62302;-80
2023/07/08 00:18:44;;;;;;;;;;;;;;;13.79;64.69;101980.45;108062;1259;124434;-80
2023/07/08 00:21:14;;;;;;;;;;;;;;;13.75;64.65;101975.76;108217;1253;74955;-80
2023/07/08 00:23:46;;;;;;;;;;;;;;;13.73;64.81;101972.67;108091;1255;125225;-80
2023/07/08 00:26:25;;;;;;;;;;;;;;;13.71;64.96;101974.90;107952;1254;72700;-80
2023/07/08 00:28:52;;;;;;;;;;;;;;;13.69;65.07;101976.08;107872;1259;59500;-80
2023/07/08 00:31:23;;;;;;;;;;;;;;;13.67;65.26;101972.47;107895;1254;124291;-80
2023/07/08 00:33:50;;;;;;;;;;;;;;;13.64;65.27;101974.33;107852;1259;74505;-80
2023/07/08 00:36:17;;;;;;;;;;;;;;;13.62;65.36;101972.66;107829;1256;124205;-80
2023/07/08 00:38:44;;;;;;;;;;;;;;;13.59;65.37;101976.13;107856;1257;72706;-85
2023/07/08 00:44:23;;;;;;;;;;;;;;;13.54;65.59;101969.25;107620;1259;60378;-86
2023/07/08 00:46:53;;;;;;;;;;;;;;;13.53;65.69;101969.58;107572;1253;74827;-85
2023/07/08 00:49:24;;;;;;;;;;;;;;;13.53;65.73;101973.26;107545;1259;125658;-85
2023/07/08 00:52:20;;;;;;;;;;;;;;;13.52;65.85;101967.95;107261;1257;72739;-85
2023/07/08 00:54:50;;;;;;;;;;;;;;;13.53;65.91;101966.20;107301;1254;124847;-86
2023/07/08 00:57:29;;;;;;;;;;;;;;;13.53;65.95;101969.56;107215;1254;61247;-85
2023/07/08 01:00:15;;;;;;;;;;;;;;;13.53;65.87;101971.18;107323;1254;124922;-85
2023/07/08 01:02:49;;;;;;;;;;;;;;;13.53;65.97;101970.27;107312;1255;66187;-85
2023/07/08 01:05:26;;;;;;;;;;;;;;;13.55;65.95;101968.93;107428;1257;125134;-85
2023/07/08 01:08:01;;;;;;;;;;;;;;;13.57;65.93;101969.85;107629;1259;61256;-86
2023/07/08 01:10:32;;;;;;;;;;;;;;;13.58;65.99;101965.52;107294;1255;60400;-85
2023/07/08 01:13:07;;;;;;;;;;;;;;;13.59;65.92;101969.42;107132;1263;125419;-85
2023/07/08 01:15:39;;;;;;;;;;;;;;;13.60;65.90;101965.38;107461;1256;65520;-85
2023/07/08 01:18:07;;;;;;;;;;;;;;;13.61;65.90;101965.60;107553;1257;124666;-86
2023/07/08 01:20:40;;;;;;;;;;;;;;;13.65;65.93;101964.65;107492;1254;61289;-86
2023/07/08 01:23:07;;;;;;;;;;;;;;;13.67;65.90;101960.66;107780;1254;61406;-85
2023/07/08 01:25:43;;;;;;;;;;;;;;;13.69;65.77;101956.31;107745;1254;124587;-85
2023/07/08 01:28:10;;;;;;;;;;;;;;;13.69;65.74;101953.14;107755;1254;65957;-85
2023/07/08 01:30:37;;;;;;;;;;;;;;;13.70;65.68;101953.86;107468;1257;124360;-85
2023/07/08 01:33:24;;;;;;;;;;;;;;;13.69;65.70;101948.73;107218;1259;60456;-85
2023/07/08 01:36:13;;;;;;;;;;;;;;;13.70;65.67;101951.75;107236;1261;124917;-85
2023/07/08 01:38:40;;;;;;;;;;;;;;;13.69;65.63;101949.44;107691;1254;73389;-87
2023/07/08 01:41:10;;;;;;;;;;;;;;;13.68;65.63;101944.11;107960;1258;67003;-85
2023/07/08 01:43:37;;;;;;;;;;;;;;;13.67;65.60;101933.14;107516;1254;71638;-85
2023/07/08 01:46:07;;;;;;;;;;;;;;;13.67;65.61;101933.48;107279;1254;60303;-85
2023/07/08 01:48:36;;;;;;;;;;;;;;;13.66;65.47;101927.63;107104;1260;124677;-85
2023/07/08 01:51:22;;;;;;;;;;;;;;;13.63;65.47;101927.73;107351;1255;74561;-85
2023/07/08 01:53:51;;;;;;;;;;;;;;;13.60;65.44;101926.77;107146;1254;124415;-85
2023/07/08 01:56:30;;;;;;;;;;;;;;;13.58;65.45;101930.23;107077;1256;72749;-85
2023/07/08 01:59:00;;;;;;;;;;;;;;;13.55;65.45;101930.31;107313;1254;60917;-85
2023/07/08 02:01:29;;;;;;;;;;;;;;;13.54;65.53;101926.75;107350;1254;124125;-85
2023/07/08 02:03:56;;;;;;;;;;;;;;;13.52;65.56;101925.97;107688;1254;74164;-85
2023/07/08 02:06:35;;;;;;;;;;;;;;;13.51;65.55;101926.98;107441;1254;124285;-85
2023/07/08 02:09:10;;;;;;;;;;;;;;;13.48;65.61;101926.39;107427;1254;73107;-85
2023/07/08 02:11:47;;;;;;;;;;;;;;;13.47;65.65;101929.31;107355;1256;124251;-85
2023/07/08 02:14:16;;;;;;;;;;;;;;;13.45;65.73;101932.09;107533;1255;60021;-85
2023/07/08 02:16:55;;;;;;;;;;;;;;;13.44;65.60;101931.70;107282;1254;74574;-85
2023/07/08 02:19:34;;;;;;;;;;;;;;;13.43;65.62;101934.33;107262;1254;124505;-85
2023/07/08 02:22:04;;;;;;;;;;;;;;;13.43;65.68;101939.09;107226;1254;71153;-84
2023/07/08 02:24:33;;;;;;;;;;;;;;;13.44;65.76;101940.33;107220;1260;124062;-85
2023/07/08 02:27:01;;;;;;;;;;;;;;;13.46;65.79;101937.41;107420;1256;59975;-85
2023/07/08 02:29:38;;;;;;;;;;;;;;;13.50;65.86;101932.60;107180;1256;124834;-84
2023/07/08 02:32:09;;;;;;;;;;;;;;;13.56;65.67;101932.08;107333;1257;66776;-85
2023/07/08 02:34:48;;;;;;;;;;;;;;;13.62;65.70;101932.29;107345;1258;72672;-85
2023/07/08 02:37:22;;;;;;;;;;;;;;;13.69;65.58;101934.63;107235;1255;124227;-84
2023/07/08 02:39:49;;;;;;;;;;;;;;;13.76;65.51;101933.41;107443;1254;60592;-84
2023/07/08 02:42:16;;;;;;;;;;;;;;;13.81;65.35;101936.23;107345;1254;124702;-85
2023/07/08 02:44:45;;;;;;;;;;;;;;;13.87;65.28;101933.77;107364;1254;65824;-85
2023/07/08 02:50:26;;;;;;;;;;;;;;;14.02;65.03;101935.63;107464;1254;61238;-85
2023/07/08 02:52:53;;;;;;;;;;;;;;;14.08;65.03;101932.64;107257;1254;61141;-85
2023/07/08 02:55:20;;;;;;;;;;;;;;;14.14;64.95;101932.80;107138;1253;124653;-85
2023/07/08 02:58:07;;;;;;;;;;;;;;;14.20;64.94;101927.16;107387;1255;65795;-85
2023/07/08 03:00:53;;;;;;;;;;;;;;;14.28;64.79;101927.55;107393;1254;125327;-85
2023/07/08 03:03:20;;;;;;;;;;;;;;;14.33;64.54;101928.04;107661;1254;61378;-85
2023/07/08 03:06:01;;;;;;;;;;;;;;;14.40;64.53;101927.00;107728;1254;124425;-85
2023/07/08 03:08:28;;;;;;;;;;;;;;;14.46;64.32;101929.66;107455;1254;74609;-85
2023/07/08 03:10:58;;;;;;;;;;;;;;;14.53;64.33;101930.56;107432;1257;65750;-85
2023/07/08 03:13:27;;;;;;;;;;;;;;;14.62;64.08;101930.47;107308;1254;124719;-85
2023/07/08 03:16:01;;;;;;;;;;;;;;;14.70;63.93;101928.22;107402;1254;60619;-85
2023/07/08 03:18:45;;;;;;;;;;;;;;;14.79;63.83;101923.14;107541;1253;124044;-85
2023/07/08 03:21:13;;;;;;;;;;;;;;;14.87;63.77;101916.81;107541;1254;74917;-85
2023/07/08 03:23:40;;;;;;;;;;;;;;;14.96;63.65;101916.17;107585;1254;124271;-85
2023/07/08 03:26:16;;;;;;;;;;;;;;;15.07;63.50;101913.98;107508;1254;72710;-85
2023/07/08 03:28:44;;;;;;;;;;;;;;;15.19;63.29;101913.92;108086;1257;61151;-80
2023/07/08 03:31:17;;;;;;;;;;;;;;;15.30;62.99;101912.23;107412;1254;124335;-86
2023/07/08 03:33:44;;;;;;;;;;;;;;;15.42;62.85;101913.41;107733;1254;72938;-85
2023/07/08 03:36:24;;;;;;;;;;;;;;;15.55;62.72;101916.72;107694;1254;124627;-86
2023/07/08 03:38:55;;;;;;;;;;;;;;;15.70;62.51;101917.09;107602;1254;72749;-81
2023/07/08 03:41:22;;;;;;;;;;;;;;;15.87;62.34;101915.01;108724;1254;124856;-85
2023/07/08 03:43:52;;;;;;;;;;;;;;;16.04;62.12;101915.52;107321;1254;60837;-85
2023/07/08 03:46:20;;;;;;;;;;;;;;;16.20;61.92;101916.22;107624;1254;73218;-80
2023/07/08 03:48:47;;;;;;;;;;;;;;;16.41;61.81;101911.14;108029;1254;124185;-80
2023/07/08 03:51:20;;;;;;;;;;;;;;;16.73;61.73;101911.92;108372;1254;72660;-80
2023/07/08 03:53:47;;;;;;;;;;;;;;;17.10;61.35;101913.14;107839;1254;124556;-80
2023/07/08 03:56:14;;;;;;;;;;;;;;;17.48;61.01;101908.23;107835;1254;61365;-80
2023/07/08 03:58:41;;;;;;;;;;;;;;;18.02;60.96;101905.10;107987;1254;74566;-80
2023/07/08 04:01:16;;;;;;;;;;;;;;;19.12;60.94;101903.23;107719;1254;124396;-80
2023/07/08 04:03:43;;;;;;;;;;;;;;;19.88;59.49;101905.00;107914;1254;72534;-80
2023/07/08 04:06:10;;;;;;;;;;;;;;;21.40;59.59;101897.61;107856;1254;124304;-81
2023/07/08 04:08:37;;;;;;;;;;;;;;;23.11;57.59;101900.05;107802;1254;59702;-80
2023/07/08 04:11:04;;;;;;;;;;;;;;;24.70;56.05;101900.52;107891;1254;74441;-81
2023/07/08 04:13:32;;;;;;;;;;;;;;;26.13;53.64;101898.16;107662;1254;125187;-80
2023/07/08 04:15:59;;;;;;;;;;;;;;;27.33;51.96;101899.26;107928;1259;72778;-81
2023/07/08 04:18:27;;;;;;;;;;;;;;;28.58;49.65;101896.36;108006;1254;125126;-81
2023/07/08 04:20:53;;;;;;;;;;;;;;;29.45;47.62;101894.17;108167;1254;61225;-81
2023/07/08 04:23:21;;;;;;;;;;;;;;;30.35;45.90;101900.05;107856;1254;125083;-81
2023/07/08 04:25:49;;;;;;;;;;;;;;;31.14;44.36;101899.34;107736;1254;61369;-81
2023/07/08 04:28:16;;;;;;;;;;;;;;;31.99;43.02;101895.41;107718;1255;64081;-81
2023/07/08 04:30:43;;;;;;;;;;;;;;;32.81;41.69;101891.10;108424;1254;125032;-81
2023/07/08 04:33:11;;;;;;;;;;;;;;;33.58;40.45;101884.80;108311;1254;60932;-81
2023/07/08 04:35:39;;;;;;;;;;;;;;;34.44;39.54;101891.50;108002;1254;125192;-81
2023/07/08 04:38:09;;;;;;;;;;;;;;;35.24;38.09;101891.91;107909;1254;59679;-81
2023/07/08 04:40:42;;;;;;;;;;;;;;;35.98;37.14;101893.34;108878;1254;62804;-81
2023/07/08 04:43:12;;;;;;;;;;;;;;;36.78;35.83;101889.75;108963;1254;124719;-81
2023/07/08 04:45:39;;;;;;;;;;;;;;;37.39;34.62;101885.02;109041;1254;58888;-80
2023/07/08 04:48:12;;;;;;;;;;;;;;;38.02;33.62;101889.86;108923;1254;124058;-79
2023/07/08 04:50:41;;;;;;;;;;;;;;;38.53;32.54;101889.63;109045;1254;59488;-80
2023/07/08 04:53:08;;;;;;;;;;;;;;;38.96;31.87;101887.26;108946;1254;64693;-81
2023/07/08 04:55:35;;;;;;;;;;;;;;;39.62;31.13;101884.98;108874;1254;124267;-82
2023/07/08 04:58:11;;;;;;;;;;;;;;;40.38;30.21;101886.74;109003;1254;59375;-83
2023/07/08 05:00:41;;;;;;;;;;;;;;;40.65;29.08;101891.86;108927;1254;124070;-82
2023/07/08 05:03:08;;;;;;;;;;;;;;;40.58;28.46;101895.02;107929;1256;60982;-83
2023/07/08 05:05:35;;;;;;;;;;;;;;;40.54;27.92;101892.27;107769;1254;124855;-82
2023/07/08 05:08:02;;;;;;;;;;;;;;;40.52;27.51;101893.67;107735;1257;61291;-81
2023/07/08 05:10:29;;;;;;;;;;;;;;;40.56;27.22;101889.80;107574;1254;61836;-80
2023/07/08 05:12:56;;;;;;;;;;;;;;;40.68;26.99;101892.31;107515;1253;124651;-81
2023/07/08 05:15:23;;;;;;;;;;;;;;;40.78;26.52;101892.79;107733;1258;60481;-82
2023/07/08 05:17:50;;;;;;;;;;;;;;;41.04;26.29;101889.46;107839;1254;124217;-84
2023/07/08 05:20:22;;;;;;;;;;;;;;;41.64;25.87;101885.34;107738;1254;61282;-84
2023/07/08 05:22:49;;;;;;;;;;;;;;;40.94;24.84;101885.23;107852;1253;61128;-80
2023/07/08 05:25:17;;;;;;;;;;;;;;;38.97;25.07;101886.73;107689;1253;124064;-80
2023/07/08 05:27:44;;;;;;;;;;;;;;;37.21;25.73;101880.17;107461;1260;59960;-80
2023/07/08 05:30:13;;;;;;;;;;;;;;;36.84;26.82;101875.64;107508;1254;124554;-81
2023/07/08 05:32:40;;;;;;;;;;;;;;;37.39;26.72;101871.81;108154;1253;60462;-81
2023/07/08 05:35:07;;;;;;;;;;;;;;;37.64;26.51;101872.30;108029;1253;61235;-81
2023/07/08 05:37:35;;;;;;;;;;;;;;;37.75;26.48;101870.95;107482;1254;123980;-81
2023/07/08 05:40:04;;;;;;;;;;;;;;;38.60;26.39;101868.54;107583;1254;59658;-81
2023/07/08 05:42:31;;;;;;;;;;;;;;;39.60;25.65;101869.95;107590;1254;125257;-81
2023/07/08 05:44:58;;;;;;;;;;;;;;;39.79;25.12;101867.89;107683;1254;61311;-81
2023/07/08 05:47:26;;;;;;;;;;;;;;;38.38;24.53;101863.81;107622;1254;124459;-80
2023/07/08 05:49:53;;;;;;;;;;;;;;;36.09;25.16;101864.57;107800;1253;66148;-81
2023/07/08 05:52:20;;;;;;;;;;;;;;;34.02;26.10;101864.84;107773;1254;59583;-81
2023/07/08 05:54:47;;;;;;;;;;;;;;;32.25;27.06;101866.73;107658;1254;125840;-81
2023/07/08 05:57:48;;;;;;;;;;;;;;;30.72;28.23;101865.74;107761;1254;59622;-87
2023/07/08 06:00:43;;;;;;;;;;;;;;;29.20;29.77;101866.31;107431;1253;124088;-88
2023/07/08 06:03:16;;;;;;;;;;;;;;;28.06;30.98;101872.30;107356;1254;74514;-87
2023/07/08 06:05:45;;;;;;;;;;;;;;;27.15;32.16;101875.06;107231;1253;124217;-87
2023/07/08 06:08:14;;;;;;;;;;;;;;;26.41;33.05;101869.64;107227;1254;72708;-85
2023/07/08 06:10:43;;;;;;;;;;;;;;;25.56;34.08;101872.85;107132;1260;61559;-86
2023/07/08 06:13:11;;;;;;;;;;;;;;;24.84;35.22;101877.18;107476;1253;124220;-85
2023/07/08 06:15:46;;;;;;;;;;;;;;;24.31;36.21;101877.77;107564;1254;75182;-88
2023/07/08 06:18:14;;;;;;;;;;;;;;;23.87;36.86;101880.14;107427;1253;124098;-86
2023/07/08 06:20:41;;;;;;;;;;;;;;;23.61;37.77;101879.17;107507;1253;72537;-86
2023/07/08 06:23:11;;;;;;;;;;;;;;;23.44;38.41;101882.75;107837;1253;60466;-81
2023/07/08 06:25:38;;;;;;;;;;;;;;;23.28;38.80;101882.56;108095;1253;61151;-80
2023/07/08 06:28:05;;;;;;;;;;;;;;;23.26;38.84;101886.53;109136;1253;73468;-81
2023/07/08 06:30:32;;;;;;;;;;;;;;;23.20;38.84;101883.19;108929;1254;124182;-81
2023/07/08 06:32:59;;;;;;;;;;;;;;;23.16;38.84;101884.29;109184;1253;72679;-81
2023/07/08 06:35:26;;;;;;;;;;;;;;;23.27;38.91;101883.46;109082;1253;124688;-81
2023/07/08 06:37:53;;;;;;;;;;;;;;;23.49;38.70;101879.13;109249;1253;59280;-80
2023/07/08 06:40:20;;;;;;;;;;;;;;;23.67;38.45;101882.34;109208;1253;74633;-80
2023/07/08 06:42:48;;;;;;;;;;;;;;;23.78;38.33;101885.98;108925;1252;125106;-80
2023/07/08 06:45:15;;;;;;;;;;;;;;;23.83;38.37;101881.29;109003;1254;71318;-81
2023/07/08 06:47:42;;;;;;;;;;;;;;;23.93;38.36;101884.91;108947;1253;124657;-81
2023/07/08 06:50:09;;;;;;;;;;;;;;;24.00;38.09;101882.15;109261;1254;59032;-80
2023/07/08 06:52:36;;;;;;;;;;;;;;;23.88;38.13;101883.37;109222;1252;74362;-80
2023/07/08 06:55:05;;;;;;;;;;;;;;;23.90;38.32;101884.23;109155;1253;124732;-80
2023/07/08 06:57:32;;;;;;;;;;;;;;;24.17;38.44;101876.54;109045;1254;71396;-80
2023/07/08 06:59:59;;;;;;;;;;;;;;;24.36;38.02;101876.46;108357;1253;124318;-80
2023/07/08 07:02:27;;;;;;;;;;;;;;;24.37;37.84;101870.52;107941;1254;60065;-80
2023/07/08 07:04:56;;;;;;;;;;;;;;;24.27;37.77;101868.17;107849;1254;74688;-81
2023/07/08 07:07:23;;;;;;;;;;;;;;;24.14;37.94;101868.85;107877;1253;124846;-80
2023/07/08 07:09:50;;;;;;;;;;;;;;;24.06;37.90;101872.75;108082;1254;72691;-81
2023/07/08 07:12:17;;;;;;;;;;;;;;;23.81;37.86;101868.75;108186;1254;123956;-81
2023/07/08 07:14:44;;;;;;;;;;;;;;;23.55;38.20;101867.95;107704;1256;59410;-81
2023/07/08 07:17:10;;;;;;;;;;;;;;;23.42;38.37;101865.60;107908;1254;73457;-82
2023/07/08 07:19:38;;;;;;;;;;;;;;;23.32;38.70;101866.76;107710;1254;124708;-81
2023/07/08 07:22:05;;;;;;;;;;;;;;;23.30;38.83;101873.59;108239;1253;71716;-80
2023/07/08 07:24:32;;;;;;;;;;;;;;;23.26;38.95;101872.02;107732;1254;124332;-80
2023/07/08 07:26:58;;;;;;;;;;;;;;;23.23;38.98;101872.04;107970;1253;61219;-81
2023/07/08 07:29:27;;;;;;;;;;;;;;;23.21;39.29;101871.17;107965;1253;124306;-81
2023/07/08 07:31:54;;;;;;;;;;;;;;;23.18;39.31;101874.77;107960;1254;65726;-80
2023/07/08 07:34:21;;;;;;;;;;;;;;;23.03;39.28;101871.86;108045;1253;73564;-80
2023/07/08 07:36:48;;;;;;;;;;;;;;;22.99;39.38;101867.41;107782;1254;124549;-80
2023/07/08 07:39:15;;;;;;;;;;;;;;;22.93;39.65;101869.42;108240;1254;61493;-81
2023/07/08 07:41:43;;;;;;;;;;;;;;;22.93;39.64;101869.96;108185;1254;124924;-81
2023/07/08 07:44:09;;;;;;;;;;;;;;;22.93;39.70;101872.81;108125;1254;65769;-80
2023/07/08 07:46:37;;;;;;;;;;;;;;;22.90;39.79;101870.52;107965;1254;73042;-81
2023/07/08 07:49:04;;;;;;;;;;;;;;;22.86;39.84;101868.75;107821;1253;124162;-81
2023/07/08 07:51:31;;;;;;;;;;;;;;;22.80;39.85;101864.34;107801;1257;61266;-80
2023/07/08 07:53:58;;;;;;;;;;;;;;;22.76;39.95;101864.20;107954;1254;124927;-83
2023/07/08 07:56:26;;;;;;;;;;;;;;;22.72;40.00;101864.05;108922;1253;67749;-81
2023/07/08 07:58:55;;;;;;;;;;;;;;;22.69;40.19;101862.81;109190;1253;72666;-82
2023/07/08 08:01:22;;;;;;;;;;;;;;;22.66;40.20;101865.88;109139;1253;125301;-81
2023/07/08 08:03:52;;;;;;;;;;;;;;;22.67;40.33;101866.77;108765;1253;60020;-81
2023/07/08 08:06:19;;;;;;;;;;;;;;;22.68;40.21;101866.92;108187;1254;124573;-82
2023/07/08 08:08:47;;;;;;;;;;;;;;;22.69;40.35;101869.24;108098;1253;66759;-83
2023/07/08 08:11:14;;;;;;;;;;;;;;;22.73;40.45;101875.14;107676;1254;124496;-83
2023/07/08 08:13:42;;;;;;;;;;;;;;;22.73;40.36;101875.32;107667;1254;61154;-82
2023/07/08 08:16:09;;;;;;;;;;;;;;;22.70;40.43;101880.70;107826;1253;61180;-82
2023/07/08 08:18:36;;;;;;;;;;;;;;;22.67;40.42;101881.62;107560;1253;124777;-81
2023/07/08 08:21:03;;;;;;;;;;;;;;;22.69;40.62;101878.38;107809;1253;66069;-82
2023/07/08 08:23:30;;;;;;;;;;;;;;;22.77;40.60;101882.08;108085;1253;124788;-82
2023/07/08 08:25:57;;;;;;;;;;;;;;;22.84;40.47;101880.59;108153;1254;59512;-81
2023/07/08 08:28:24;;;;;;;;;;;;;;;22.85;40.40;101882.91;108155;1252;60196;-82
2023/07/08 08:30:51;;;;;;;;;;;;;;;22.85;40.43;101882.92;108082;1253;124661;-81
2023/07/08 08:33:18;;;;;;;;;;;;;;;22.83;40.52;101885.06;108001;1258;65694;-82
2023/07/08 08:35:45;;;;;;;;;;;;;;;22.82;40.60;101883.48;107831;1254;124816;-82
2023/07/08 08:38:12;;;;;;;;;;;;;;;22.87;40.51;101879.66;107925;1254;60871;-81
2023/07/08 08:40:40;;;;;;;;;;;;;;;22.96;40.70;101887.65;108048;1254;61154;-82
2023/07/08 08:43:10;;;;;;;;;;;;;;;23.03;40.82;101884.58;108083;1254;124437;-82
2023/07/08 08:46:00;;;;;;;;;;;;;;;23.11;40.87;101883.98;107902;1254;66157;-81
2023/07/08 08:48:27;;;;;;;;;;;;;;;23.23;41.17;101882.97;107759;1254;124474;-82
2023/07/08 08:50:55;;;;;;;;;;;;;;;23.35;41.25;101880.34;107841;1256;59312;-82
2023/07/08 08:53:22;;;;;;;;;;;;;;;23.46;40.96;101879.88;108105;1253;124950;-81
2023/07/08 08:56:16;;;;;;;;;;;;;;;23.51;40.76;101882.70;108132;1252;73726;-81
2023/07/08 08:58:58;;;;;;;;;;;;;;;23.52;40.38;101886.43;107660;1254;67059;-86
2023/07/08 09:01:43;;;;;;;;;;;;;;;23.49;40.33;101883.95;107866;1252;124086;-88
2023/07/08 09:04:40;;;;;;;;;;;;;;;23.52;40.33;101885.91;107859;1253;61030;-88
2023/07/08 09:07:10;;;;;;;;;;;;;;;23.55;40.44;101884.44;107796;1253;124087;-88
2023/07/08 09:09:56;;;;;;;;;;;;;;;23.53;40.33;101881.77;108090;1253;75121;-86
2023/07/08 09:12:29;;;;;;;;;;;;;;;23.44;40.55;101875.06;107895;1253;124694;-87
2023/07/08 09:14:56;;;;;;;;;;;;;;;23.42;40.64;101873.65;107584;1254;72354;-86
2023/07/08 09:17:27;;;;;;;;;;;;;;;23.42;40.92;101875.61;107644;1256;124567;-85
2023/07/08 09:20:13;;;;;;;;;;;;;;;23.38;40.72;101875.48;107853;1253;59990;-85
2023/07/08 09:23:18;;;;;;;;;;;;;;;23.35;40.86;101872.11;107867;1254;74874;-87
2023/07/08 09:25:46;;;;;;;;;;;;;;;23.41;40.80;101872.76;107325;1260;66925;-87
2023/07/08 09:28:18;;;;;;;;;;;;;;;23.50;40.91;101878.04;107671;1254;72443;-88
2023/07/08 09:30:48;;;;;;;;;;;;;;;23.60;40.87;101877.92;107615;1254;124162;-88
2023/07/08 09:33:15;;;;;;;;;;;;;;;23.68;40.85;101877.65;107706;1253;61275;-88
2023/07/08 09:35:53;;;;;;;;;;;;;;;23.78;40.91;101874.50;107615;1253;124874;-88
2023/07/08 09:38:21;;;;;;;;;;;;;;;23.87;40.83;101874.61;107867;1253;67119;-88
2023/07/08 09:40:49;;;;;;;;;;;;;;;23.91;40.73;101870.63;107613;1254;72721;-88
2023/07/08 09:43:26;;;;;;;;;;;;;;;23.93;40.62;101876.50;107947;1253;124138;-87
2023/07/08 09:45:57;;;;;;;;;;;;;;;23.89;40.75;101877.09;107932;1254;60894;-90
2023/07/08 09:48:34;;;;;;;;;;;;;;;23.80;40.79;101877.38;108027;1253;124262;-88
2023/07/08 09:51:08;;;;;;;;;;;;;;;23.72;40.73;101875.29;107927;1254;67016;-88
2023/07/08 09:53:56;;;;;;;;;;;;;;;23.69;40.82;101875.50;107668;1254;124586;-87
2023/07/08 09:56:39;;;;;;;;;;;;;;;23.65;40.89;101871.25;108107;1256;59776;-88
2023/07/08 09:59:17;;;;;;;;;;;;;;;23.59;41.14;101871.13;107887;1254;60583;-89
2023/07/08 10:01:51;;;;;;;;;;;;;;;23.56;41.31;101869.73;107727;1253;73410;-88
2023/07/08 10:04:19;;;;;;;;;;;;;;;23.59;41.40;101870.79;107603;1254;65903;-88
2023/07/08 10:06:47;;;;;;;;;;;;;;;23.62;41.36;101871.10;107490;1254;124521;-88
2023/07/08 10:09:19;;;;;;;;;;;;;;;23.64;41.53;101868.02;107603;1252;61355;-88
2023/07/08 10:11:56;;;;;;;;;;;;;;;23.69;41.40;101870.30;107715;1254;124297;-86
2023/07/08 10:14:33;;;;;;;;;;;;;;;23.73;41.35;101865.41;107683;1254;73108;-88
2023/07/08 10:17:03;;;;;;;;;;;;;;;23.80;41.37;101862.48;107621;1254;65819;-89
2023/07/08 10:19:30;;;;;;;;;;;;;;;24.03;41.40;101863.64;107924;1253;124328;-89
2023/07/08 10:22:16;;;;;;;;;;;;;;;24.30;41.29;101860.40;107787;1253;61289;-88
2023/07/08 10:25:01;;;;;;;;;;;;;;;24.54;40.61;101861.67;107653;1253;124049;-87
2023/07/08 10:27:47;;;;;;;;;;;;;;;24.63;40.14;101864.59;107637;1253;73278;-88
2023/07/08 10:30:16;;;;;;;;;;;;;;;24.67;39.80;101850.90;107603;1254;124852;-83
2023/07/08 10:32:44;;;;;;;;;;;;;;;24.74;39.89;101854.73;107818;1254;71710;-82
2023/07/08 10:35:38;;;;;;;;;;;;;;;24.85;39.47;101853.64;107420;1254;61740;-92
2023/07/08 10:38:24;;;;;;;;;;;;;;;24.94;39.46;101845.77;107371;1256;61228;-89
2023/07/08 10:41:00;;;;;;;;;;;;;;;25.01;39.00;101853.73;107689;1256;73582;-88
2023/07/08 10:43:41;;;;;;;;;;;;;;;24.87;38.77;101853.08;107201;1254;125138;-88
2023/07/08 10:46:12;;;;;;;;;;;;;;;24.72;38.85;101846.70;107271;1254;72676;-87
2023/07/08 10:48:59;;;;;;;;;;;;;;;24.68;38.84;101855.71;107398;1252;124218;-87
2023/07/08 10:51:32;;;;;;;;;;;;;;;24.60;38.88;101861.95;107204;1256;60414;-88
2023/07/08 10:54:18;;;;;;;;;;;;;;;24.45;39.59;101852.81;107450;1253;124303;-87
2023/07/08 10:57:17;;;;;;;;;;;;;;;24.22;39.97;101855.66;107659;1254;66901;-87
2023/07/08 11:00:11;;;;;;;;;;;;;;;24.04;40.31;101852.86;107423;1254;124254;-86
2023/07/08 11:03:01;;;;;;;;;;;;;;;23.93;40.50;101855.70;107581;1253;60335;-87
2023/07/08 11:06:03;;;;;;;;;;;;;;;23.88;40.79;101856.14;107632;1254;124539;-88
2023/07/08 11:08:54;;;;;;;;;;;;;;;23.77;41.07;101863.04;107813;1253;73067;-87
2023/07/08 11:11:50;;;;;;;;;;;;;;;23.68;41.21;101858.30;107617;1254;66823;-84
2023/07/08 11:17:41;;;;;;;;;;;;;;;23.60;41.73;101855.17;107606;1253;59994;-86
2023/07/08 11:20:43;;;;;;;;;;;;;;;23.56;41.88;101850.92;107549;1254;61746;-85
2023/07/08 11:23:32;;;;;;;;;;;;;;;23.57;42.00;101851.27;107005;1259;74301;-86
2023/07/08 11:26:20;;;;;;;;;;;;;;;23.58;42.02;101853.58;107457;1254;65748;-85
2023/07/08 11:28:47;;;;;;;;;;;;;;;23.44;42.16;101851.95;107540;1254;71781;-85
2023/07/08 11:31:16;;;;;;;;;;;;;;;23.34;42.42;101846.15;107425;1254;124214;-87
2023/07/08 11:34:02;;;;;;;;;;;;;;;23.28;42.46;101850.70;107363;1254;61457;-86
2023/07/08 11:36:43;;;;;;;;;;;;;;;23.24;42.72;101854.30;107114;1254;124095;-85
2023/07/08 11:39:31;;;;;;;;;;;;;;;23.22;42.90;101853.96;107270;1254;67040;-86
2023/07/08 11:42:09;;;;;;;;;;;;;;;23.16;43.01;101854.92;107471;1254;124544;-86
2023/07/08 11:44:56;;;;;;;;;;;;;;;23.12;43.34;101859.61;107485;1254;61031;-86
2023/07/08 11:47:32;;;;;;;;;;;;;;;23.15;43.60;101863.52;107411;1254;61877;-88
2023/07/08 11:50:13;;;;;;;;;;;;;;;23.20;43.61;101864.02;107466;1254;74845;-88
2023/07/08 11:52:53;;;;;;;;;;;;;;;23.16;43.70;101863.16;107436;1254;65702;-87
2023/07/08 11:55:31;;;;;;;;;;;;;;;23.12;43.65;101862.13;107476;1254;124393;-81
2023/07/08 11:58:08;;;;;;;;;;;;;;;23.06;43.66;101869.17;107589;1254;60290;-85
2023/07/08 12:00:44;;;;;;;;;;;;;;;23.02;43.75;101867.20;107555;1256;125156;-86
2023/07/08 12:03:19;;;;;;;;;;;;;;;23.01;43.69;101869.16;107645;1254;74354;-81
2023/07/08 12:06:12;;;;;;;;;;;;;;;22.97;43.63;101869.20;107541;1253;124307;-86
2023/07/08 12:08:46;;;;;;;;;;;;;;;22.92;43.79;101868.00;107563;1254;71155;-84
2023/07/08 12:11:32;;;;;;;;;;;;;;;22.92;43.89;101872.48;107289;1254;61394;-85
2023/07/08 12:14:02;;;;;;;;;;;;;;;22.85;43.95;101875.74;107560;1254;60158;-80
2023/07/08 12:16:30;;;;;;;;;;;;;;;22.83;44.12;101879.70;107525;1254;73409;-82
2023/07/08 12:18:59;;;;;;;;;;;;;;;22.80;43.99;101880.27;107881;1253;124214;-80
2023/07/08 12:21:27;;;;;;;;;;;;;;;22.72;44.01;101879.27;107850;1253;72703;-87
2023/07/08 12:24:11;;;;;;;;;;;;;;;22.67;44.34;101882.69;107602;1253;59392;-85
2023/07/08 12:26:50;;;;;;;;;;;;;;;22.64;44.41;101886.11;107583;1252;59375;-88
2023/07/08 12:29:19;;;;;;;;;;;;;;;22.61;44.36;101881.84;107800;1256;74357;-87
2023/07/08 12:31:46;;;;;;;;;;;;;;;22.49;44.40;101887.64;107634;1253;66719;-87
2023/07/08 12:37:15;;;;;;;;;;;;;;;22.31;44.72;101893.28;107547;1255;124167;-84
2023/07/08 12:39:42;;;;;;;;;;;;;;;22.29;44.71;101887.23;107776;1254;61241;-84
2023/07/08 12:42:12;;;;;;;;;;;;;;;22.28;44.97;101883.83;107343;1254;124886;-84
2023/07/08 12:44:43;;;;;;;;;;;;;;;22.27;45.28;101882.23;107276;1257;65834;-85
2023/07/08 12:47:10;;;;;;;;;;;;;;;22.25;45.02;101877.58;107356;1254;73458;-86
2023/07/08 12:49:48;;;;;;;;;;;;;;;22.22;45.17;101875.95;107235;1254;124491;-85
2023/07/08 12:52:29;;;;;;;;;;;;;;;22.25;45.32;101879.71;107463;1253;60510;-85
2023/07/08 12:55:09;;;;;;;;;;;;;;;22.24;45.20;101881.33;107410;1253;124886;-85
2023/07/08 12:57:36;;;;;;;;;;;;;;;22.25;45.35;101882.93;107503;1254;67114;-85
2023/07/08 13:00:06;;;;;;;;;;;;;;;22.30;45.49;101886.33;107352;1254;124686;-86
2023/07/08 13:02:43;;;;;;;;;;;;;;;22.31;45.27;101882.38;107471;1254;59608;-81